createdAt,value
2018-09-23T00:01:32.319Z,45.20
2018-09-23T00:04:00.677Z,45.20
2018-09-23T00:06:28.240Z,45.10
2018-09-23T00:08:55.854Z,45.10
2018-09-23T00:11:23.484Z,45.10
2018-09-23T00:13:51.402Z,45.10
2018-09-23T00:16:19.005Z,45.10
2018-09-23T00:18:46.613Z,45.10
2018-09-23T00:21:14.149Z,45.10
2018-09-23T00:23:41.716Z,45.10
2018-09-23T00:26:09.344Z,45.10
2018-09-23T00:28:36.947Z,45.10
2018-09-23T00:31:04.512Z,45.10
2018-09-23T00:33:32.074Z,45.10
2018-09-23T00:35:59.702Z,45.10
2018-09-23T00:38:27.293Z,45.40
2018-09-23T00:40:54.884Z,45.00
2018-09-23T00:43:22.510Z,45.00
2018-09-23T00:45:50.106Z,45.00
2018-09-23T00:48:17.652Z,45.50
2018-09-23T00:50:45.281Z,45.00
2018-09-23T00:53:12.878Z,45.00
2018-09-23T00:55:40.421Z,45.00
2018-09-23T00:58:08.002Z,45.00
2018-09-23T01:00:35.596Z,44.90
2018-09-23T01:03:03.192Z,45.00
2018-09-23T01:05:30.735Z,44.90
2018-09-23T01:07:58.290Z,44.90
2018-09-23T01:10:26.040Z,44.80
2018-09-23T01:12:53.681Z,44.80
2018-09-23T01:15:21.297Z,44.80
2018-09-23T01:17:48.907Z,44.80
2018-09-23T01:20:16.544Z,44.80
2018-09-23T01:22:44.120Z,44.60
2018-09-23T01:25:11.720Z,44.70
2018-09-23T01:27:39.352Z,44.70
2018-09-23T01:30:07.079Z,44.60
2018-09-23T01:32:34.634Z,44.70
2018-09-23T01:35:02.197Z,44.80
2018-09-23T01:37:29.789Z,44.60
2018-09-23T01:39:57.426Z,44.70
2018-09-23T01:42:24.968Z,44.60
2018-09-23T01:44:52.533Z,44.70
2018-09-23T01:47:20.225Z,44.80
2018-09-23T01:49:47.796Z,44.80
2018-09-23T01:52:15.515Z,44.60
2018-09-23T01:54:43.136Z,44.60
2018-09-23T01:57:10.680Z,44.70
2018-09-23T01:59:38.275Z,44.70
2018-09-23T02:02:05.888Z,44.60
2018-09-23T02:04:33.456Z,44.60
2018-09-23T02:07:01.002Z,44.60
2018-09-23T02:09:28.626Z,44.60
2018-09-23T02:11:56.189Z,44.60
2018-09-23T02:14:23.850Z,44.50
2018-09-23T02:16:51.417Z,44.50
2018-09-23T02:19:19.063Z,44.50
2018-09-23T02:21:46.654Z,44.50
2018-09-23T02:24:14.307Z,44.50
2018-09-23T02:26:41.887Z,44.50
2018-09-23T02:29:09.434Z,44.50
2018-09-23T02:31:36.996Z,44.50
2018-09-23T02:34:04.655Z,44.50
2018-09-23T02:36:32.182Z,44.50
2018-09-23T02:38:59.722Z,44.50
2018-09-23T02:41:27.921Z,44.50
2018-09-23T02:43:55.558Z,44.50
2018-09-23T02:46:27.769Z,44.50
2018-09-23T02:48:55.368Z,44.60
2018-09-23T02:51:22.897Z,44.50
2018-09-23T02:53:50.528Z,44.50
2018-09-23T02:56:18.126Z,44.50
2018-09-23T02:58:45.738Z,44.50
2018-09-23T03:01:13.329Z,44.50
2018-09-23T03:03:40.877Z,44.40
2018-09-23T03:06:08.418Z,44.50
2018-09-23T03:08:35.974Z,44.40
2018-09-23T03:11:03.562Z,44.30
2018-09-23T03:13:31.294Z,44.30
2018-09-23T03:15:58.914Z,44.30
2018-09-23T03:18:26.469Z,44.30
2018-09-23T03:20:54.052Z,44.30
2018-09-23T03:23:21.647Z,44.40
2018-09-23T03:25:49.212Z,44.30
2018-09-23T03:28:16.845Z,44.30
2018-09-23T03:30:46.534Z,44.30
2018-09-23T03:33:14.106Z,44.40
2018-09-23T03:35:41.708Z,44.30
2018-09-23T03:38:09.390Z,44.20
2018-09-23T03:40:37.033Z,44.20
2018-09-23T03:43:04.785Z,44.20
2018-09-23T03:45:32.345Z,44.20
2018-09-23T03:47:59.934Z,44.20
2018-09-23T03:50:27.527Z,44.30
2018-09-23T03:52:55.149Z,44.80
2018-09-23T03:55:22.707Z,44.20
2018-09-23T03:57:50.351Z,44.20
2018-09-23T04:00:17.960Z,44.20
2018-09-23T04:02:45.541Z,44.20
2018-09-23T04:05:13.114Z,44.30
2018-09-23T04:07:40.701Z,44.20
2018-09-23T04:10:08.381Z,44.20
2018-09-23T04:12:35.996Z,44.20
2018-09-23T04:15:03.576Z,44.20
2018-09-23T04:17:31.202Z,44.10
2018-09-23T04:19:58.818Z,44.20
2018-09-23T04:22:26.492Z,44.10
2018-09-23T04:24:54.243Z,44.10
2018-09-23T04:27:21.869Z,44.10
2018-09-23T04:29:49.442Z,44.10
2018-09-23T04:32:17.096Z,44.10
2018-09-23T04:34:44.705Z,43.90
2018-09-23T04:37:12.381Z,44.10
2018-09-23T04:39:39.977Z,44.00
2018-09-23T04:42:07.717Z,44.00
2018-09-23T04:44:35.305Z,44.00
2018-09-23T04:47:03.023Z,44.00
2018-09-23T04:49:30.722Z,44.00
2018-09-23T04:51:58.364Z,44.00
2018-09-23T04:54:25.978Z,43.90
2018-09-23T04:56:53.683Z,44.70
2018-09-23T04:59:21.234Z,44.10
2018-09-23T05:01:52.874Z,44.00
2018-09-23T05:04:20.494Z,44.10
2018-09-23T05:06:49.097Z,44.00
2018-09-23T05:09:16.694Z,44.10
2018-09-23T05:11:44.336Z,44.10
2018-09-23T05:14:13.738Z,44.00
2018-09-23T05:16:42.588Z,44.00
2018-09-23T05:21:55.199Z,43.90
2018-09-23T05:32:49.717Z,43.70
2018-09-23T05:35:17.248Z,44.30
2018-09-23T05:37:44.907Z,44.40
2018-09-23T05:40:12.385Z,44.50
2018-09-23T05:42:39.869Z,44.50
2018-09-23T05:45:07.657Z,44.50
2018-09-23T05:47:35.139Z,44.50
2018-09-23T05:50:02.602Z,44.50
2018-09-23T05:52:30.062Z,44.60
2018-09-23T05:54:57.529Z,44.70
2018-09-23T05:57:24.996Z,44.70
2018-09-23T05:59:52.610Z,44.70
2018-09-23T06:02:19.980Z,44.70
2018-09-23T06:04:47.445Z,44.80
2018-09-23T06:07:14.907Z,44.80
2018-09-23T06:09:42.363Z,44.90
2018-09-23T06:12:09.813Z,44.90
2018-09-23T06:14:37.285Z,44.90
2018-09-23T06:17:04.745Z,44.90
2018-09-23T06:19:32.196Z,45.00
2018-09-23T06:21:59.661Z,45.00
2018-09-23T06:24:27.150Z,45.00
2018-09-23T06:26:54.614Z,45.00
2018-09-23T06:29:22.554Z,45.10
2018-09-23T06:31:50.054Z,45.10
2018-09-23T06:34:17.535Z,45.20
2018-09-23T06:36:45.000Z,45.20
2018-09-23T06:39:12.519Z,45.30
2018-09-23T06:41:40.066Z,45.60
2018-09-23T06:44:07.604Z,45.70
2018-09-23T06:46:35.207Z,45.70
2018-09-23T06:49:02.713Z,45.70
2018-09-23T06:51:30.222Z,45.70
2018-09-23T06:53:57.669Z,45.80
2018-09-23T06:56:25.147Z,45.80
2018-09-23T06:58:52.610Z,45.90
2018-09-23T07:01:20.088Z,45.90
2018-09-23T07:03:47.554Z,46.00
2018-09-23T07:06:15.005Z,46.00
2018-09-23T07:08:42.509Z,45.70
2018-09-23T07:11:09.997Z,46.10
2018-09-23T07:13:37.514Z,46.20
2018-09-23T07:16:05.038Z,46.20
2018-09-23T07:18:32.869Z,46.20
2018-09-23T07:21:00.348Z,46.30
2018-09-23T07:23:28.053Z,46.30
2018-09-23T07:25:55.511Z,46.30
2018-09-23T07:28:23.123Z,46.50
2018-09-23T07:30:50.639Z,46.60
2018-09-23T07:33:18.096Z,46.80
2018-09-23T07:35:45.565Z,46.90
2018-09-23T07:38:13.058Z,47.10
2018-09-23T07:40:40.531Z,47.10
2018-09-23T07:43:08.015Z,47.10
2018-09-23T07:45:35.539Z,47.20
2018-09-23T07:48:03.008Z,47.30
2018-09-23T07:50:30.500Z,47.40
2018-09-23T07:52:57.994Z,47.40
2018-09-23T07:55:25.448Z,47.50
2018-09-23T07:57:53.832Z,47.50
2018-09-23T08:00:21.333Z,47.80
2018-09-23T08:02:48.817Z,47.80
2018-09-23T08:05:16.289Z,47.80
2018-09-23T08:07:43.757Z,47.80
2018-09-23T08:10:11.264Z,47.80
2018-09-23T08:12:38.768Z,47.80
2018-09-23T08:15:06.560Z,47.80
2018-09-23T08:17:33.920Z,47.80
2018-09-23T08:20:01.428Z,47.90
2018-09-23T08:22:28.925Z,48.00
2018-09-23T08:24:56.396Z,48.20
2018-09-23T08:27:23.899Z,48.20
2018-09-23T08:29:51.396Z,48.30
2018-09-23T08:32:18.906Z,48.50
2018-09-23T08:34:46.386Z,48.50
2018-09-23T08:37:13.875Z,48.60
2018-09-23T08:39:41.325Z,48.60
2018-09-23T08:42:08.872Z,48.60
2018-09-23T08:44:36.326Z,48.50
2018-09-23T08:47:03.810Z,48.50
2018-09-23T08:49:31.265Z,48.40
2018-09-23T08:51:58.848Z,48.30
2018-09-23T08:54:26.244Z,48.80
2018-09-23T08:56:53.693Z,48.20
2018-09-23T08:59:21.153Z,48.20
2018-09-23T09:01:48.632Z,48.20
2018-09-23T09:04:16.129Z,48.10
2018-09-23T09:06:43.592Z,48.10
2018-09-23T09:09:11.073Z,48.00
2018-09-23T09:11:38.575Z,48.00
2018-09-23T09:14:06.083Z,48.00
2018-09-23T09:16:33.561Z,48.00
2018-09-23T09:19:01.045Z,48.00
2018-09-23T09:21:28.513Z,47.90
2018-09-23T09:23:56.000Z,48.00
2018-09-23T09:26:25.836Z,48.00
2018-09-23T09:28:53.328Z,47.80
2018-09-23T09:31:20.813Z,47.90
2018-09-23T09:33:48.470Z,47.90
2018-09-23T09:36:15.980Z,48.00
2018-09-23T09:38:43.474Z,47.90
2018-09-23T09:41:10.966Z,48.00
2018-09-23T09:43:38.517Z,48.00
2018-09-23T09:46:06.341Z,47.90
2018-09-23T09:48:33.818Z,47.80
2018-09-23T09:51:01.297Z,47.90
2018-09-23T09:53:28.839Z,47.80
2018-09-23T09:55:56.272Z,47.80
2018-09-23T09:58:23.741Z,47.80
2018-09-23T10:00:51.208Z,47.70
2018-09-23T10:03:18.677Z,47.80
2018-09-23T10:05:46.162Z,47.80
2018-09-23T10:08:13.616Z,47.80
2018-09-23T10:10:41.090Z,47.70
2018-09-23T10:13:08.564Z,47.80
2018-09-23T10:15:36.040Z,47.70
2018-09-23T10:18:03.500Z,47.70
2018-09-23T10:20:30.973Z,47.70
2018-09-23T10:22:58.466Z,47.80
2018-09-23T10:25:25.928Z,47.70
2018-09-23T10:27:53.406Z,47.80
2018-09-23T10:30:20.893Z,47.70
2018-09-23T10:32:48.368Z,47.80
2018-09-23T10:35:15.860Z,47.80
2018-09-23T10:37:43.508Z,47.80
2018-09-23T10:40:11.076Z,47.80
2018-09-23T10:42:38.544Z,47.80
2018-09-23T10:45:06.233Z,47.80
2018-09-23T10:47:33.701Z,47.80
2018-09-23T10:50:01.166Z,47.80
2018-09-23T10:52:28.629Z,47.70
2018-09-23T10:54:56.107Z,47.80
2018-09-23T10:57:23.565Z,47.70
2018-09-23T10:59:51.058Z,47.70
2018-09-23T11:02:18.745Z,47.80
2018-09-23T11:04:46.284Z,47.80
2018-09-23T11:07:13.822Z,47.70
2018-09-23T11:09:41.333Z,47.80
2018-09-23T11:12:08.866Z,47.80
2018-09-23T11:14:36.341Z,47.80
2018-09-23T11:17:03.827Z,47.80
2018-09-23T11:19:31.340Z,47.70
2018-09-23T11:21:58.818Z,47.80
2018-09-23T11:24:26.336Z,47.80
2018-09-23T11:26:53.804Z,47.80
2018-09-23T11:29:21.290Z,47.80
2018-09-23T11:31:48.785Z,47.80
2018-09-23T11:34:16.261Z,47.80
2018-09-23T11:36:43.747Z,47.80
2018-09-23T11:39:12.310Z,47.80
2018-09-23T11:41:39.805Z,47.70
2018-09-23T11:44:07.302Z,47.70
2018-09-23T11:46:34.761Z,47.70
2018-09-23T11:49:02.258Z,47.70
2018-09-23T11:51:29.713Z,47.80
2018-09-23T11:53:57.193Z,47.90
2018-09-23T11:56:24.911Z,48.00
2018-09-23T11:58:52.456Z,47.70
2018-09-23T12:01:20.046Z,47.80
2018-09-23T12:03:47.661Z,47.70
2018-09-23T12:06:15.214Z,47.70
2018-09-23T12:08:42.691Z,47.80
2018-09-23T12:11:10.242Z,47.80
2018-09-23T12:13:37.747Z,47.80
2018-09-23T12:16:05.215Z,47.80
2018-09-23T12:18:32.689Z,47.80
2018-09-23T12:21:00.150Z,47.80
2018-09-23T12:23:27.629Z,47.80
2018-09-23T12:25:55.197Z,47.90
2018-09-23T12:28:22.955Z,48.10
2018-09-23T12:30:50.429Z,48.10
2018-09-23T12:33:17.939Z,48.20
2018-09-23T12:35:45.372Z,48.50
2018-09-23T12:38:13.002Z,48.50
2018-09-23T12:40:40.481Z,48.60
2018-09-23T12:43:08.216Z,48.50
2018-09-23T12:45:35.721Z,48.50
2018-09-23T12:48:03.207Z,48.50
2018-09-23T12:50:30.673Z,48.70
2018-09-23T12:52:58.198Z,49.10
2018-09-23T12:55:25.701Z,49.60
2018-09-23T12:57:53.221Z,49.80
2018-09-23T13:00:20.677Z,50.50
2018-09-23T13:02:48.157Z,50.00
2018-09-23T13:05:15.644Z,50.10
2018-09-23T13:07:43.114Z,50.00
2018-09-23T13:10:10.596Z,49.90
2018-09-23T13:12:38.072Z,49.80
2018-09-23T13:15:05.617Z,49.80
2018-09-23T13:17:33.124Z,49.80
2018-09-23T13:20:00.632Z,49.80
2018-09-23T13:22:28.212Z,49.70
2018-09-23T13:24:55.685Z,49.70
2018-09-23T13:27:23.159Z,50.20
2018-09-23T13:29:50.650Z,49.70
2018-09-23T13:32:18.181Z,49.60
2018-09-23T13:34:45.670Z,49.60
2018-09-23T13:37:13.202Z,49.60
2018-09-23T13:39:40.783Z,49.60
2018-09-23T13:42:08.320Z,49.50
2018-09-23T13:44:35.882Z,49.50
2018-09-23T13:47:03.344Z,49.50
2018-09-23T13:49:30.939Z,49.40
2018-09-23T13:51:58.468Z,49.40
2018-09-23T13:54:26.182Z,49.30
2018-09-23T13:56:53.662Z,49.30
2018-09-23T13:59:21.447Z,49.30
2018-09-23T14:01:48.951Z,49.20
2018-09-23T14:04:16.611Z,49.30
2018-09-23T14:06:44.188Z,49.20
2018-09-23T14:09:11.657Z,49.30
2018-09-23T14:11:39.202Z,49.20
2018-09-23T14:14:06.722Z,49.20
2018-09-23T14:16:34.189Z,49.10
2018-09-23T14:19:01.669Z,49.20
2018-09-23T14:21:29.142Z,49.30
2018-09-23T14:23:56.656Z,49.40
2018-09-23T14:26:24.841Z,49.40
2018-09-23T14:28:52.360Z,49.40
2018-09-23T14:31:19.844Z,49.40
2018-09-23T14:33:47.457Z,49.40
2018-09-23T14:36:14.958Z,49.50
2018-09-23T14:38:42.446Z,49.50
2018-09-23T14:41:09.938Z,49.50
2018-09-23T14:43:37.679Z,49.50
2018-09-23T14:46:05.205Z,49.50
2018-09-23T14:48:32.726Z,49.50
2018-09-23T14:51:00.300Z,49.50
2018-09-23T14:53:27.951Z,49.50
2018-09-23T14:55:55.476Z,49.50
2018-09-23T14:58:22.993Z,49.50
2018-09-23T15:00:50.604Z,49.50
2018-09-23T15:03:18.910Z,49.50
2018-09-23T15:05:46.432Z,49.50
2018-09-23T15:08:14.089Z,49.50
2018-09-23T15:10:41.640Z,49.50
2018-09-23T15:13:09.142Z,49.50
2018-09-23T15:15:36.642Z,49.50
2018-09-23T15:18:04.344Z,49.60
2018-09-23T15:20:31.832Z,49.60
2018-09-23T15:22:59.346Z,49.60
2018-09-23T15:25:26.819Z,49.60
2018-09-23T15:27:54.291Z,49.60
2018-09-23T15:30:22.085Z,49.60
2018-09-23T15:32:49.670Z,49.60
2018-09-23T15:35:17.292Z,49.60
2018-09-23T15:37:44.879Z,49.60
2018-09-23T15:40:12.493Z,49.60
2018-09-23T15:42:39.994Z,49.60
2018-09-23T15:45:07.497Z,49.60
2018-09-23T15:47:35.197Z,49.00
2018-09-23T15:50:02.674Z,49.60
2018-09-23T15:52:30.338Z,49.60
2018-09-23T15:54:57.848Z,49.60
2018-09-23T15:57:25.388Z,49.50
2018-09-23T15:59:52.866Z,49.60
2018-09-23T16:02:20.381Z,49.50
2018-09-23T16:04:48.862Z,49.60
2018-09-23T16:07:16.434Z,50.10
2018-09-23T16:09:44.064Z,49.90
2018-09-23T16:12:11.699Z,49.90
2018-09-23T16:14:39.856Z,49.90
2018-09-23T16:17:07.431Z,50.00
2018-09-23T16:19:34.917Z,50.00
2018-09-23T16:22:02.402Z,50.00
2018-09-23T16:24:30.136Z,50.50
2018-09-23T16:26:57.599Z,50.00
2018-09-23T16:29:25.248Z,49.90
2018-09-23T16:31:52.772Z,49.90
2018-09-23T16:34:20.286Z,49.90
2018-09-23T16:36:47.791Z,49.90
2018-09-23T16:39:15.305Z,49.80
2018-09-23T16:41:42.813Z,50.50
2018-09-23T16:44:10.510Z,49.90
2018-09-23T16:46:37.989Z,49.80
2018-09-23T16:49:05.496Z,49.80
2018-09-23T16:51:33.162Z,49.70
2018-09-23T16:54:00.660Z,49.70
2018-09-23T16:56:28.190Z,49.60
2018-09-23T16:58:56.705Z,49.70
2018-09-23T17:01:24.230Z,49.70
2018-09-23T17:03:51.791Z,49.80
2018-09-23T17:06:19.328Z,49.70
2018-09-23T17:08:46.868Z,49.90
2018-09-23T17:11:14.372Z,49.90
2018-09-23T17:13:41.877Z,50.00
2018-09-23T17:16:09.513Z,50.00
2018-09-23T17:18:37.105Z,50.00
2018-09-23T17:21:04.824Z,50.00
2018-09-23T17:23:32.282Z,50.10
2018-09-23T17:25:59.772Z,50.00
2018-09-23T17:28:27.362Z,50.10
2018-09-23T17:30:54.840Z,50.00
2018-09-23T17:33:22.678Z,50.00
2018-09-23T17:35:50.258Z,49.50
2018-09-23T17:38:17.729Z,50.20
2018-09-23T17:40:45.513Z,50.60
2018-09-23T17:43:13.229Z,51.10
2018-09-23T17:45:41.156Z,51.10
2018-09-23T17:48:08.633Z,51.90
2018-09-23T17:50:36.153Z,52.20
2018-09-23T17:53:03.795Z,52.20
2018-09-23T17:55:31.349Z,52.40
2018-09-23T17:57:58.833Z,52.50
2018-09-23T18:00:26.639Z,52.60
2018-09-23T18:02:54.515Z,52.70
2018-09-23T18:05:22.696Z,52.80
2018-09-23T18:07:50.231Z,52.90
2018-09-23T18:10:17.754Z,53.60
2018-09-23T18:12:45.431Z,53.20
2018-09-23T18:15:12.977Z,53.40
2018-09-23T18:17:40.605Z,53.50
2018-09-23T18:20:08.454Z,53.50
2018-09-23T18:22:36.044Z,53.50
2018-09-23T18:25:03.655Z,53.70
2018-09-23T18:27:31.376Z,53.80
2018-09-23T18:29:58.981Z,53.90
2018-09-23T18:32:26.564Z,54.20
2018-09-23T18:34:54.062Z,54.20
2018-09-23T18:37:21.727Z,54.40
2018-09-23T18:39:49.232Z,54.30
2018-09-23T18:42:16.841Z,54.60
2018-09-23T18:44:44.437Z,54.70
2018-09-23T18:47:11.904Z,54.80
2018-09-23T18:49:39.647Z,54.90
2018-09-23T18:52:07.520Z,55.00
2018-09-23T18:54:40.542Z,55.70
2018-09-23T18:57:08.051Z,55.80
2018-09-23T18:59:35.572Z,55.20
2018-09-23T19:02:03.145Z,55.30
2018-09-23T19:04:30.691Z,55.40
2018-09-23T19:06:58.149Z,55.40
2018-09-23T19:09:25.729Z,55.60
2018-09-23T19:11:54.409Z,56.20
2018-09-23T19:14:21.966Z,55.60
2018-09-23T19:16:49.444Z,55.60
2018-09-23T19:19:17.271Z,55.70
2018-09-23T19:21:44.762Z,55.70
2018-09-23T19:24:12.242Z,55.80
2018-09-23T19:26:39.709Z,55.80
2018-09-23T19:29:07.219Z,55.80
2018-09-23T19:31:34.900Z,55.90
2018-09-23T19:34:02.488Z,55.90
2018-09-23T19:36:29.949Z,55.90
2018-09-23T19:38:57.419Z,55.90
2018-09-23T19:41:24.890Z,56.00
2018-09-23T19:43:52.369Z,56.10
2018-09-23T19:46:19.848Z,56.10
2018-09-23T19:48:47.327Z,56.20
2018-09-23T19:51:14.959Z,56.20
2018-09-23T19:53:42.427Z,56.20
2018-09-23T19:56:10.298Z,56.40
2018-09-23T19:58:37.760Z,56.40
2018-09-23T20:01:05.255Z,56.30
2018-09-23T20:03:32.984Z,56.40
2018-09-23T20:06:00.462Z,56.40
2018-09-23T20:08:27.961Z,56.40
2018-09-23T20:10:55.414Z,56.40
2018-09-23T20:13:23.062Z,56.40
2018-09-23T20:15:50.801Z,56.40
2018-09-23T20:18:18.547Z,56.40
2018-09-23T20:20:46.086Z,56.40
2018-09-23T20:23:13.549Z,57.00
2018-09-23T20:25:41.025Z,56.40
2018-09-23T20:28:08.560Z,56.50
2018-09-23T20:30:35.992Z,56.50
2018-09-23T20:33:03.481Z,56.50
2018-09-23T20:35:30.975Z,56.50
2018-09-23T20:37:58.469Z,56.50
2018-09-23T20:40:25.936Z,56.50
2018-09-23T20:42:53.402Z,56.60
2018-09-23T20:45:20.855Z,56.60
2018-09-23T20:47:48.313Z,56.70
2018-09-23T20:50:15.790Z,56.70
2018-09-23T20:52:43.264Z,56.70
2018-09-23T20:55:10.730Z,56.70
2018-09-23T20:57:38.203Z,56.80
2018-09-23T21:00:05.657Z,56.80
2018-09-23T21:02:33.149Z,56.80
2018-09-23T21:05:00.618Z,56.80
2018-09-23T21:07:28.077Z,56.80
2018-09-23T21:09:55.529Z,56.80
2018-09-23T21:12:23.001Z,56.80
2018-09-23T21:14:50.457Z,57.10
2018-09-23T21:17:17.930Z,57.40
2018-09-23T21:19:45.392Z,56.70
2018-09-23T21:22:12.868Z,56.70
2018-09-23T21:24:40.325Z,56.70
2018-09-23T21:27:07.788Z,56.60
2018-09-23T21:29:35.265Z,56.60
2018-09-23T21:32:02.720Z,57.20
2018-09-23T21:34:30.163Z,56.60
2018-09-23T21:36:57.623Z,56.60
2018-09-23T21:39:25.129Z,56.60
2018-09-23T21:41:52.576Z,56.50
2018-09-23T21:44:20.165Z,56.60
2018-09-23T21:46:47.617Z,56.60
2018-09-23T21:49:15.137Z,56.60
2018-09-23T21:51:42.601Z,56.70
2018-09-23T21:54:10.048Z,56.70
2018-09-23T21:56:37.500Z,56.70
2018-09-23T21:59:04.961Z,56.70
2018-09-23T22:01:32.433Z,56.70
2018-09-23T22:03:59.889Z,56.70
2018-09-23T22:06:27.364Z,56.70
2018-09-23T22:08:54.821Z,56.70
2018-09-23T22:11:22.275Z,56.70
2018-09-23T22:13:49.749Z,56.70
2018-09-23T22:16:17.209Z,57.20
2018-09-23T22:18:44.688Z,56.50
2018-09-23T22:21:12.152Z,56.50
2018-09-23T22:23:39.620Z,56.40
2018-09-23T22:26:07.111Z,56.40
2018-09-23T22:28:35.780Z,56.50
2018-09-23T22:31:03.321Z,57.10
2018-09-23T22:33:30.793Z,56.30
2018-09-23T22:35:58.359Z,56.40
2018-09-23T22:38:25.821Z,56.40
2018-09-23T22:40:53.294Z,56.30
2018-09-23T22:43:20.761Z,56.20
2018-09-23T22:45:48.225Z,56.20
2018-09-23T22:48:15.685Z,56.20
2018-09-23T22:50:43.169Z,56.30
2018-09-23T22:53:10.617Z,56.20
2018-09-23T22:55:38.068Z,56.20
2018-09-23T22:58:05.524Z,56.10
2018-09-23T23:00:32.981Z,56.20
2018-09-23T23:03:00.437Z,56.20
2018-09-23T23:05:27.896Z,56.20
2018-09-23T23:07:55.343Z,56.20
2018-09-23T23:10:22.805Z,56.10
2018-09-23T23:12:50.269Z,56.10
2018-09-23T23:15:17.745Z,56.10
2018-09-23T23:17:45.261Z,56.10
2018-09-23T23:20:12.725Z,56.60
2018-09-23T23:22:40.209Z,56.10
2018-09-23T23:25:07.670Z,55.90
2018-09-23T23:27:35.125Z,55.90
2018-09-23T23:30:02.576Z,55.80
2018-09-23T23:32:30.020Z,55.80
2018-09-23T23:34:57.474Z,55.90
2018-09-23T23:37:24.934Z,55.80
2018-09-23T23:39:52.382Z,55.80
2018-09-23T23:42:19.860Z,55.80
2018-09-23T23:44:47.316Z,55.80
2018-09-23T23:47:14.836Z,55.80
2018-09-23T23:49:42.271Z,55.80
2018-09-23T23:52:09.714Z,55.80
2018-09-23T23:54:37.180Z,55.80
2018-09-23T23:57:04.674Z,55.80
2018-09-23T23:59:32.145Z,55.80
